Terminal Aerodrome Forecast
Issued by NWS

Home | Current Version | Previous Version | Text Only | Print | Product List | Glossary On
Versions: 1 2 3 4 5 6 7 8 9 10 11 12 13 14 15 16 17 18 19 20 21 22
197
FTUS43 KILX 122007 AAA
TAFBMI
TAF AMD
KBMI 122007Z 1220/1318 31017G26KT P6SM SCT015 BKN030
      TEMPO 1221/1223 SCT025
     FM122300 31016G24KT P6SM SCT025
     FM130100 32015G20KT P6SM SCT020
     FM130600 33012KT P6SM SCT250
     FM131200 33008KT P6SM SCT250=

USA.gov is the U.S. government's official web portal to all federal, state and local government web resources and services.